Terminal Aerodrome Forecast
Issued by NWS Sioux Falls, SD

Home | Current Version | Previous Version | Graphics & Text | Print | Product List | Glossary Off
Versions: 1 2 3 4 5 6 7 8 9 10 11 12 13 14 15 16

000
FTUS43 KFSD 220523
TAFHON
TAF
KHON 220523Z 2206/2306 VRB02KT P6SM FEW100
     FM221400 14005KT P6SM SKC
     FM222000 16008KT P6SM OVC250
     FM230200 17007KT P6SM OVC100=

USA.gov is the U.S. government's official web portal to all federal, state and local government web resources and services.